Time;durP1;ratioP1;P1;durP2;ratioP2;P2;SDS_P1;SDS_P2;PMS_P1;PMS_P2;Temp;Humidity;BMP_temperature;BMP_pressure;BME280_temperature;BME280_humidity;BME280_pressure;Samples;Min_cycle;Max_cycle;Signal;HPM_P1;HPM_P2
2022/06/02 00:01:20;;;;;;;10.43;7.88;;;9.80;99.90;;;;;;5070596;28;20084;-69
2022/06/02 00:04:11;;;;;;;12.30;8.70;;;9.70;99.90;;;;;;5072240;28;20055;-69
2022/06/02 00:06:46;;;;;;;13.25;8.38;;;9.80;99.90;;;;;;5072061;28;20044;-69
2022/06/02 00:09:41;;;;;;;12.27;7.93;;;9.80;99.90;;;;;;5070779;28;20494;-69
2022/06/02 00:12:24;;;;;;;12.20;8.75;;;9.70;99.90;;;;;;5070788;28;20068;-71
2022/06/02 00:15:06;;;;;;;11.13;8.82;;;9.70;99.90;;;;;;5071950;28;20040;-70
2022/06/02 00:17:47;;;;;;;12.82;9.15;;;9.60;99.90;;;;;;5072119;28;20045;-70
2022/06/02 00:20:26;;;;;;;13.25;7.90;;;9.60;99.90;;;;;;5070234;28;20059;-70
2022/06/02 00:23:06;;;;;;;11.20;8.43;;;9.60;99.90;;;;;;5071858;28;20040;-70
2022/06/02 00:25:49;;;;;;;11.07;8.32;;;9.70;99.90;;;;;;5072147;28;20041;-70
2022/06/02 00:28:27;;;;;;;9.65;7.70;;;9.70;99.90;;;;;;5072057;28;20050;-70
2022/06/02 00:31:19;;;;;;;10.27;8.20;;;9.70;99.90;;;;;;5070275;28;20043;-70
2022/06/02 00:34:14;;;;;;;11.90;9.27;;;9.70;99.90;;;;;;5070513;28;20119;-70
2022/06/02 00:37:00;;;;;;;13.05;8.57;;;9.70;99.90;;;;;;5071833;28;20046;-70
2022/06/02 00:39:29;;;;;;;11.73;9.05;;;9.70;99.90;;;;;;5053680;28;20490;-70
2022/06/02 00:41:54;;;;;;;12.80;9.13;;;9.60;99.90;;;;;;5071323;28;20032;-70
2022/06/02 00:44:38;;;;;;;11.68;9.27;;;9.50;99.90;;;;;;5071892;28;20440;-70
2022/06/02 00:47:28;;;;;;;11.77;9.30;;;9.50;99.90;;;;;;5070622;28;20044;-70
2022/06/02 00:50:04;;;;;;;11.60;9.55;;;9.50;99.90;;;;;;5071410;28;20051;-70
2022/06/02 00:53:10;;;;;;;12.75;10.50;;;9.40;99.90;;;;;;5070519;28;20044;-70
2022/06/02 00:59:26;;;;;;;16.10;10.40;;;9.50;99.90;;;;;;5071414;28;20123;-70
2022/06/02 01:01:52;;;;;;;14.20;10.38;;;9.50;99.90;;;;;;5071270;28;20507;-70
2022/06/02 01:04:19;;;;;;;14.00;10.60;;;9.50;99.90;;;;;;5071513;28;20112;-70
2022/06/02 01:06:51;;;;;;;13.40;10.88;;;9.40;99.90;;;;;;5070054;28;20514;-70
2022/06/02 01:09:39;;;;;;;14.85;10.50;;;9.40;99.90;;;;;;5071635;28;20079;-70
2022/06/02 01:12:40;;;;;;;13.95;10.77;;;9.40;99.90;;;;;;5069843;28;20041;-70
2022/06/02 01:15:32;;;;;;;16.67;11.73;;;9.30;99.90;;;;;;5071443;28;20037;-70
2022/06/02 01:18:04;;;;;;;16.80;11.40;;;9.20;99.90;;;;;;5071478;28;20052;-70
2022/06/02 01:20:47;;;;;;;16.55;12.48;;;9.20;99.90;;;;;;5071563;28;20044;-70
2022/06/02 01:23:31;;;;;;;;;;;9.20;99.90;;;;;;5075649;28;20510;-70
2022/06/02 01:26:32;;;;;;;16.67;11.18;;;9.20;99.90;;;;;;5075169;28;19916;-70
2022/06/02 01:29:18;;;;;;;17.98;12.13;;;9.20;99.90;;;;;;5073899;28;20040;-70
2022/06/02 01:31:52;;;;;;;14.80;11.10;;;9.20;99.90;;;;;;5074700;28;20122;-70
2022/06/02 01:34:36;;;;;;;16.88;10.80;;;9.10;99.90;;;;;;5075035;28;20450;-70
2022/06/02 01:37:17;;;;;;;17.05;12.77;;;9.10;99.90;;;;;;5075079;28;20102;-70
2022/06/02 01:39:58;;;;;;;14.77;12.15;;;9.10;99.90;;;;;;5074782;28;20037;-70
2022/06/02 01:42:37;;;;;;;15.85;11.52;;;9.10;99.90;;;;;;5074786;28;20064;-70
2022/06/02 01:45:39;;;;;;;16.75;12.43;;;9.10;99.90;;;;;;5073515;28;20547;-70
2022/06/02 01:48:33;;;;;;;18.98;13.38;;;9.00;99.90;;;;;;5074736;28;20517;-70
2022/06/02 01:51:18;;;;;;;16.77;12.50;;;9.00;99.90;;;;;;5074542;28;20119;-70
2022/06/02 01:54:15;;;;;;;16.15;12.40;;;9.00;99.90;;;;;;5073442;28;20040;-71
2022/06/02 01:56:56;;;;;;;18.52;13.05;;;9.00;99.90;;;;;;5074630;28;20097;-70
2022/06/02 02:00:16;;;;;;;17.30;13.05;;;9.00;99.90;;;;;;5074831;28;20055;-70
2022/06/02 02:03:16;;;;;;;13.68;11.55;;;8.90;99.90;;;;;;4976447;28;20046;-70
2022/06/02 02:06:26;;;;;;;14.73;12.07;;;8.90;99.90;;;;;;5074710;28;20067;-70
2022/06/02 02:09:05;;;;;;;16.23;12.30;;;8.90;99.90;;;;;;5074474;28;20044;-70
2022/06/02 02:11:46;;;;;;;15.15;11.73;;;8.90;99.90;;;;;;5073860;28;20040;-70
2022/06/02 02:14:14;;;;;;;16.83;12.48;;;8.90;99.90;;;;;;5073256;28;20058;-70
2022/06/02 02:16:54;;;;;;;15.05;11.93;;;8.90;99.90;;;;;;5074371;28;20075;-70
2022/06/02 02:19:38;;;;;;;16.52;13.02;;;8.90;99.90;;;;;;5073181;28;20032;-70
2022/06/02 02:22:18;;;;;;;15.93;12.88;;;8.90;99.90;;;;;;5073692;28;20043;-70
2022/06/02 02:25:06;;;;;;;15.93;11.68;;;8.90;99.90;;;;;;5074262;28;20043;-70
2022/06/02 02:28:02;;;;;;;17.30;12.60;;;8.80;99.90;;;;;;5074123;28;20086;-70
2022/06/02 02:30:45;;;;;;;16.95;11.82;;;8.80;99.90;;;;;;5072178;28;20048;-70
2022/06/02 02:33:39;;;;;;;17.67;11.77;;;8.80;99.90;;;;;;5073388;28;20047;-70
2022/06/02 02:36:29;;;;;;;14.32;11.52;;;8.80;99.90;;;;;;5073923;28;20119;-70
2022/06/02 02:39:13;;;;;;;17.55;12.50;;;8.80;99.90;;;;;;5072809;28;20052;-70
2022/06/02 02:41:58;;;;;;;16.10;11.43;;;8.80;99.90;;;;;;5071983;28;20037;-70
2022/06/02 02:44:34;;;;;;;18.05;11.48;;;8.80;99.90;;;;;;5073652;28;20131;-70
2022/06/02 02:47:18;;;;;;;14.10;11.05;;;8.80;99.90;;;;;;5073565;28;20120;-70
2022/06/02 02:50:24;;;;;;;15.50;12.00;;;8.80;99.90;;;;;;5073716;28;20037;-70
2022/06/02 02:52:53;;;;;;;16.38;11.43;;;8.80;99.90;;;;;;5033735;28;20098;-70
2022/06/02 02:55:26;;;;;;;13.02;10.40;;;8.80;99.90;;;;;;5073350;28;20044;-70
2022/06/02 02:58:13;;;;;;;14.23;11.03;;;8.90;99.90;;;;;;5073672;28;20045;-70
2022/06/02 03:00:44;;;;;;;12.85;9.90;;;8.90;99.90;;;;;;5073106;28;20047;-70
2022/06/02 03:03:22;;;;;;;13.45;11.02;;;8.90;99.90;;;;;;5071991;28;20051;-70
2022/06/02 03:06:20;;;;;;;15.40;10.20;;;8.90;99.90;;;;;;5073200;28;20073;-70
2022/06/02 03:09:10;;;;;;;13.38;10.60;;;8.90;99.90;;;;;;5062406;28;20052;-70
2022/06/02 03:11:57;;;;;;;15.20;11.77;;;8.90;99.90;;;;;;5072725;28;20067;-70
2022/06/02 03:14:26;;;;;;;15.07;12.07;;;8.90;99.90;;;;;;5073248;28;20043;-70
2022/06/02 03:17:30;;;;;;;13.43;11.60;;;8.90;99.90;;;;;;5073057;28;20040;-70
2022/06/02 03:20:08;;;;;;;13.10;10.90;;;8.90;99.90;;;;;;5072669;28;20040;-70
2022/06/02 03:23:00;;;;;;;17.15;12.45;;;8.90;99.90;;;;;;5071730;28;20457;-70
2022/06/02 03:25:47;;;;;;;16.73;12.57;;;8.90;99.90;;;;;;5072943;28;20275;-70
2022/06/02 03:28:20;;;;;;;16.90;11.77;;;8.90;99.90;;;;;;5072843;28;20036;-70
2022/06/02 03:30:59;;;;;;;16.83;13.57;;;8.90;99.90;;;;;;5072228;28;20498;-70
2022/06/02 03:33:47;;;;;;;17.42;13.48;;;8.90;99.90;;;;;;5071433;28;20036;-70
2022/06/02 03:36:27;;;;;;;17.17;13.23;;;8.80;99.90;;;;;;5072593;28;20551;-70
2022/06/02 03:39:02;;;;;;;17.90;13.48;;;8.80;99.90;;;;;;5071282;28;20167;-70
2022/06/02 03:41:37;;;;;;;16.55;13.35;;;8.80;99.90;;;;;;5072151;28;20048;-70
2022/06/02 03:44:32;;;;;;;16.02;12.85;;;8.80;99.90;;;;;;5072324;28;20077;-70
2022/06/02 03:47:10;;;;;;;18.15;13.45;;;8.80;99.90;;;;;;5072573;28;20044;-70
2022/06/02 03:50:09;;;;;;;17.52;13.73;;;8.80;99.90;;;;;;5072269;28;20409;-70
2022/06/02 03:53:04;;;;;;;19.08;14.00;;;8.80;99.90;;;;;;5067930;28;20048;-70
2022/06/02 03:55:48;;;;;;;19.08;13.45;;;8.80;99.90;;;;;;5071114;28;20071;-70
2022/06/02 03:58:52;;;;;;;17.90;13.65;;;8.80;99.90;;;;;;5066246;28;20048;-70
2022/06/02 04:01:24;;;;;;;15.82;13.02;;;8.80;99.90;;;;;;5009906;28;20657;-70
2022/06/02 04:04:05;;;;;;;14.25;12.60;;;8.80;99.90;;;;;;5010271;28;20121;-70
2022/06/02 04:06:54;;;;;;;15.75;13.18;;;8.90;99.90;;;;;;5040341;28;20079;-70
2022/06/02 04:09:19;;;;;;;14.52;11.80;;;8.90;99.90;;;;;;5072195;28;20041;-70
2022/06/02 04:15:32;;;;;;;14.90;12.30;;;9.00;99.90;;;;;;5072263;28;20041;-70
2022/06/02 04:18:00;;;;;;;20.95;12.82;;;9.00;99.90;;;;;;5070785;28;20044;-70
2022/06/02 04:20:46;;;;;;;16.23;12.25;;;9.00;99.90;;;;;;5070285;28;20055;-71
2022/06/02 04:23:23;;;;;;;15.73;12.10;;;9.10;99.90;;;;;;5070180;28;20052;-70
2022/06/02 04:26:16;;;;;;;17.13;11.32;;;9.10;99.90;;;;;;5070875;28;20052;-70
2022/06/02 04:29:05;;;;;;;15.18;11.65;;;9.10;99.90;;;;;;5070765;28;20062;-70
2022/06/02 04:31:56;;;;;;;14.60;11.75;;;9.10;99.90;;;;;;5069960;28;20040;-70
2022/06/02 04:34:30;;;;;;;16.88;11.88;;;9.20;99.90;;;;;;5066810;28;20078;-70
2022/06/02 04:37:29;;;;;;;17.13;11.88;;;9.20;99.90;;;;;;5071789;28;20036;-70
2022/06/02 04:40:22;;;;;;;14.85;11.95;;;9.30;99.90;;;;;;5071308;28;20040;-70
2022/06/02 04:43:01;;;;;;;18.43;11.63;;;9.40;99.90;;;;;;5070635;28;20044;-70
2022/06/02 04:45:48;;;;;;;14.32;10.55;;;9.50;99.90;;;;;;5071699;28;20672;-70
2022/06/02 04:48:26;;;;;;;14.13;10.60;;;9.80;99.90;;;;;;5070486;28;20062;-70
2022/06/02 04:51:08;;;;;;;14.68;10.85;;;10.00;99.90;;;;;;5071399;28;20045;-70
2022/06/02 04:53:44;;;;;;;14.80;10.25;;;10.20;99.90;;;;;;5071602;28;20445;-70
2022/06/02 04:56:32;;;;;;;12.95;10.60;;;10.50;99.90;;;;;;5074620;28;20094;-70
2022/06/02 04:59:16;;;;;;;12.25;9.32;;;10.60;99.90;;;;;;5075880;28;20044;-70
2022/06/02 05:02:14;;;;;;;12.52;9.70;;;10.70;99.90;;;;;;5075284;28;20508;-70
2022/06/02 05:05:20;;;;;;;11.38;9.68;;;10.90;99.90;;;;;;5075495;28;20094;-70
2022/06/02 05:08:11;;;;;;;10.75;8.43;;;11.10;99.90;;;;;;5066126;28;20142;-70
2022/06/02 05:11:08;;;;;;;10.52;9.10;;;11.30;99.90;;;;;;5074972;28;20048;-70
2022/06/02 05:13:43;;;;;;;11.05;8.00;;;11.40;99.90;;;;;;5057459;28;20518;-70
2022/06/02 05:16:30;;;;;;;8.65;7.75;;;11.50;99.90;;;;;;5074064;28;20048;-70
2022/06/02 05:19:35;;;;;;;11.90;7.57;;;11.70;99.90;;;;;;5075316;28;20073;-70
2022/06/02 05:22:25;;;;;;;8.32;7.40;;;11.80;99.90;;;;;;5073546;28;20079;-70
2022/06/02 05:25:27;;;;;;;9.45;7.57;;;12.10;99.90;;;;;;5075240;28;20040;-70
2022/06/02 05:28:20;;;;;;;7.85;6.72;;;12.20;99.90;;;;;;5075157;28;20044;-71
2022/06/02 05:31:14;;;;;;;7.43;5.78;;;12.40;99.90;;;;;;5073236;28;20101;-70
2022/06/02 05:33:50;;;;;;;8.43;6.78;;;12.60;99.90;;;;;;5074842;28;20044;-70
2022/06/02 05:36:46;;;;;;;8.93;6.78;;;12.80;99.90;;;;;;5073711;28;20116;-71
2022/06/02 05:39:26;;;;;;;7.07;6.38;;;12.90;99.90;;;;;;5074910;28;20123;-71
2022/06/02 05:42:06;;;;;;;5.57;4.93;;;13.00;99.90;;;;;;5074413;28;20044;-69
2022/06/02 05:44:49;;;;;;;5.63;4.78;;;13.30;99.90;;;;;;5074770;28;20563;-69
2022/06/02 05:47:33;;;;;;;7.60;5.80;;;13.30;99.90;;;;;;5073389;28;20079;-70
2022/06/02 05:50:29;;;;;;;6.30;4.93;;;13.30;99.90;;;;;;5074372;28;20044;-70
2022/06/02 05:53:09;;;;;;;6.25;5.00;;;13.50;99.90;;;;;;5074840;28;20044;-70
2022/06/02 05:55:53;;;;;;;5.93;4.28;;;13.70;99.90;;;;;;5074691;28;20032;-70
2022/06/02 05:58:39;;;;;;;;;;;13.70;99.90;;;;;;5074667;28;20047;-70
2022/06/02 06:01:49;;;;;;;4.53;4.07;;;13.70;99.90;;;;;;5074379;28;19959;-70
2022/06/02 06:04:52;;;;;;;4.22;3.75;;;14.00;99.90;;;;;;5074513;28;20043;-70
2022/06/02 06:07:33;;;;;;;4.80;3.15;;;14.10;99.90;;;;;;5073120;28;20066;-70
2022/06/02 06:10:23;;;;;;;8.13;3.55;;;14.30;99.90;;;;;;5073925;28;20043;-70
2022/06/02 06:13:18;;;;;;;4.47;2.95;;;14.50;99.90;;;;;;5073048;28;20055;-70
2022/06/02 06:16:15;;;;;;;4.20;2.80;;;14.70;99.90;;;;;;5073227;28;20040;-70
2022/06/02 06:19:09;;;;;;;3.95;2.75;;;14.70;99.90;;;;;;5074293;28;20075;-70
2022/06/02 06:21:52;;;;;;;4.15;3.05;;;14.70;99.90;;;;;;5073635;28;20418;-70
2022/06/02 06:24:32;;;;;;;3.55;2.53;;;14.80;99.90;;;;;;5074251;28;20090;-70
2022/06/02 06:27:09;;;;;;;4.28;2.97;;;14.80;99.90;;;;;;5074056;28;20040;-70
2022/06/02 06:29:54;;;;;;;5.18;2.45;;;14.90;99.90;;;;;;5074041;28;20036;-70
2022/06/02 06:33:13;;;;;;;3.45;2.28;;;15.20;99.90;;;;;;5073639;28;20063;-70
2022/06/02 06:36:09;;;;;;;4.72;2.10;;;15.40;99.90;;;;;;5015175;28;20548;-70
2022/06/02 06:38:51;;;;;;;4.07;1.90;;;15.40;99.90;;;;;;5031593;28;20569;-70
2022/06/02 06:41:23;;;;;;;3.00;1.98;;;15.30;99.90;;;;;;5067997;28;20543;-70
2022/06/02 06:44:02;;;;;;;3.35;2.20;;;15.50;99.90;;;;;;5073505;28;20036;-71
2022/06/02 06:46:40;;;;;;;2.50;1.75;;;15.40;99.90;;;;;;5073707;28;20068;-70
2022/06/02 06:49:13;;;;;;;7.03;2.58;;;15.30;99.90;;;;;;5073885;28;20059;-71
2022/06/02 06:52:02;;;;;;;4.63;2.05;;;15.20;99.90;;;;;;5071842;28;20049;-71
2022/06/02 06:54:51;;;;;;;3.88;1.80;;;15.20;99.90;;;;;;5073520;28;20086;-70
2022/06/02 06:57:42;;;;;;;4.57;1.98;;;15.10;99.90;;;;;;5072415;28;20044;-70
2022/06/02 07:00:19;;;;;;;3.60;1.83;;;15.10;99.90;;;;;;5071898;28;20059;-70
2022/06/02 07:03:16;;;;;;;2.80;1.50;;;15.30;99.90;;;;;;5073507;28;20131;-70
2022/06/02 07:05:49;;;;;;;3.22;1.92;;;15.70;99.90;;;;;;5073578;28;20052;-70
2022/06/02 07:08:28;;;;;;;3.50;1.67;;;16.10;99.90;;;;;;5073206;28;20039;-70
2022/06/02 07:14:06;;;;;;;4.13;1.20;;;16.50;99.90;;;;;;5073135;28;20045;-70
2022/06/02 07:16:55;;;;;;;4.40;1.60;;;16.80;99.90;;;;;;5073294;28;20060;-70
2022/06/02 07:19:21;;;;;;;5.85;1.50;;;17.00;98.70;;;;;;5071607;28;20043;-70
2022/06/02 07:22:07;;;;;;;3.30;1.60;;;16.30;99.10;;;;;;5072471;28;20127;-70
2022/06/02 07:25:15;;;;;;;2.67;1.50;;;16.00;99.00;;;;;;5073060;28;20372;-70
2022/06/02 07:27:51;;;;;;;2.53;1.52;;;15.90;99.30;;;;;;4991258;28;20113;-70
2022/06/02 07:30:28;;;;;;;2.67;1.88;;;16.00;99.50;;;;;;4990622;28;20568;-70
2022/06/02 07:33:22;;;;;;;3.35;1.80;;;16.30;98.80;;;;;;5041608;28;20044;-70
2022/06/02 07:36:12;;;;;;;5.82;1.60;;;16.10;98.20;;;;;;5071501;28;20040;-70
2022/06/02 07:39:10;;;;;;;4.03;1.70;;;16.00;98.90;;;;;;5071252;28;20040;-70
2022/06/02 07:42:07;;;;;;;7.28;2.05;;;15.50;99.00;;;;;;5027410;28;20056;-70
2022/06/02 07:45:14;;;;;;;2.97;1.40;;;15.80;99.80;;;;;;5072657;28;20242;-70
2022/06/02 07:48:01;;;;;;;6.05;1.90;;;16.30;99.10;;;;;;5054773;28;20052;-70
2022/06/02 07:50:32;;;;;;;3.65;2.05;;;16.30;98.20;;;;;;5072056;28;20047;-70
2022/06/02 07:53:12;;;;;;;3.65;1.70;;;16.40;97.60;;;;;;5072349;28;20505;-70
2022/06/02 07:55:57;;;;;;;3.85;1.70;;;17.10;96.90;;;;;;5072626;28;20048;-70
2022/06/02 07:58:29;;;;;;;4.28;2.20;;;16.70;97.30;;;;;;5072412;28;20164;-70
2022/06/02 08:01:13;;;;;;;4.20;1.70;;;17.10;97.40;;;;;;5071922;28;20516;-70
2022/06/02 08:03:59;;;;;;;3.97;1.83;;;17.50;96.70;;;;;;5072173;28;20049;-70
2022/06/02 08:06:45;;;;;;;2.75;1.73;;;17.60;95.50;;;;;;5070450;28;20075;-70
2022/06/02 08:09:19;;;;;;;4.57;2.60;;;17.10;96.20;;;;;;5072108;28;20039;-70
2022/06/02 08:12:03;;;;;;;2.85;2.00;;;16.70;96.60;;;;;;5072142;28;20145;-70
2022/06/02 08:14:34;;;;;;;6.10;2.33;;;17.10;97.40;;;;;;5071937;28;20089;-70
2022/06/02 08:17:29;;;;;;;3.97;2.03;;;16.60;97.70;;;;;;5071721;28;20494;-70
2022/06/02 08:20:13;;;;;;;4.93;1.88;;;16.40;97.80;;;;;;5071306;28;20857;-70
2022/06/02 08:22:56;;;;;;;;;;;16.00;98.70;;;;;;5071859;28;20040;-70
2022/06/02 08:25:26;;;;;;;8.70;2.78;;;15.80;99.20;;;;;;5071538;28;20341;-70
2022/06/02 08:28:10;;;;;;;3.28;1.55;;;16.10;99.30;;;;;;5071421;28;20492;-70
2022/06/02 08:31:00;;;;;;;2.97;1.50;;;16.10;99.30;;;;;;5070037;28;20049;-70
2022/06/02 08:33:31;;;;;;;4.75;1.65;;;16.70;97.70;;;;;;5071297;28;20038;-70
2022/06/02 08:36:02;;;;;;;2.25;1.67;;;16.50;97.00;;;;;;5070410;28;20044;-70
2022/06/02 08:38:49;;;;;;;5.63;1.77;;;16.60;97.40;;;;;;5071792;28;20063;-70
2022/06/02 08:41:30;;;;;;;3.47;1.52;;;16.50;97.80;;;;;;5070099;28;20045;-70
2022/06/02 08:44:30;;;;;;;5.22;1.90;;;16.40;97.90;;;;;;5071785;28;20036;-71
2022/06/02 08:47:20;;;;;;;3.83;1.80;;;17.00;96.60;;;;;;5071779;28;20036;-71
2022/06/02 08:50:13;;;;;;;3.47;1.83;;;17.60;95.60;;;;;;5071095;28;20040;-70
2022/06/02 08:53:23;;;;;;;2.90;1.57;;;17.80;94.70;;;;;;5071349;28;20037;-70
2022/06/02 08:56:13;;;;;;;3.30;1.75;;;18.10;93.60;;;;;;5070368;28;20118;-71
2022/06/02 08:59:07;;;;;;;3.47;1.67;;;18.10;92.90;;;;;;5071739;28;20063;-71
2022/06/02 09:01:52;;;;;;;3.20;1.50;;;17.50;92.20;;;;;;5071208;28;20071;-71
2022/06/02 09:04:41;;;;;;;2.30;1.35;;;17.00;93.20;;;;;;5071456;28;20403;-71
2022/06/02 09:07:41;;;;;;;2.40;1.40;;;17.80;93.80;;;;;;5071593;28;20091;-71
2022/06/02 09:10:30;;;;;;;5.28;1.55;;;18.30;92.90;;;;;;5070999;28;20135;-71
2022/06/02 09:13:32;;;;;;;3.50;1.40;;;17.80;92.70;;;;;;5071603;28;20032;-71
2022/06/02 09:16:00;;;;;;;2.65;1.55;;;17.60;93.60;;;;;;5039444;28;20563;-71
2022/06/02 09:18:41;;;;;;;4.55;1.38;;;17.10;94.60;;;;;;5070063;28;20039;-71
2022/06/02 09:21:14;;;;;;;5.18;1.48;;;17.00;94.70;;;;;;5071116;28;20044;-71
2022/06/02 09:24:07;;;;;;;3.33;1.73;;;17.30;93.80;;;;;;5070100;28;20075;-71
2022/06/02 09:26:51;;;;;;;2.95;1.25;;;17.90;93.50;;;;;;5070312;28;20052;-71
2022/06/02 09:29:29;;;;;;;2.75;1.48;;;18.40;92.50;;;;;;5069987;28;20063;-71
2022/06/02 09:32:07;;;;;;;3.28;1.40;;;18.70;91.70;;;;;;5071013;28;20044;-71
2022/06/02 09:34:42;;;;;;;3.15;1.27;;;19.20;90.90;;;;;;5071358;28;20036;-71
2022/06/02 09:37:18;;;;;;;2.78;1.40;;;19.10;88.70;;;;;;5071284;28;20037;-71
2022/06/02 09:40:02;;;;;;;2.63;1.10;;;19.00;88.30;;;;;;5071225;28;20040;-71
2022/06/02 09:42:58;;;;;;;2.53;1.73;;;18.20;87.30;;;;;;5074575;28;20536;-71
2022/06/02 09:45:41;;;;;;;3.22;1.45;;;17.80;90.60;;;;;;5074905;28;20033;-71
2022/06/02 09:48:29;;;;;;;2.72;1.38;;;17.20;90.70;;;;;;5073498;28;20047;-72
2022/06/02 09:51:18;;;;;;;3.42;1.70;;;17.00;92.00;;;;;;5074428;28;20044;-71
2022/06/02 09:54:21;;;;;;;3.63;1.90;;;16.80;92.90;;;;;;5074711;28;20033;-71
2022/06/02 10:00:34;;;;;;;3.13;1.23;;;18.10;92.60;;;;;;5074238;28;20426;-70
2022/06/02 10:03:19;;;;;;;2.20;1.50;;;18.50;91.00;;;;;;5039631;28;20045;-71
2022/06/02 10:06:09;;;;;;;5.35;1.60;;;18.10;92.00;;;;;;5073138;28;20055;-70
2022/06/02 10:08:49;;;;;;;3.80;1.17;;;17.70;92.10;;;;;;5074376;28;20086;-71
2022/06/02 10:11:37;;;;;;;3.83;1.50;;;17.50;93.00;;;;;;5074078;28;20037;-71
2022/06/02 10:14:06;;;;;;;2.05;1.20;;;17.40;93.00;;;;;;5076538;28;20032;-71
2022/06/02 10:17:09;;;;;;;2.78;1.35;;;17.80;92.20;;;;;;5080599;28;20049;-71
2022/06/02 10:20:12;;;;;;;3.67;1.52;;;17.70;91.80;;;;;;5074064;28;20036;-71
2022/06/02 10:23:06;;;;;;;3.17;1.48;;;17.40;92.80;;;;;;5072621;28;20086;-70
2022/06/02 10:25:49;;;;;;;3.15;1.35;;;18.10;92.70;;;;;;5073810;28;20052;-71
2022/06/02 10:28:52;;;;;;;3.03;1.25;;;18.60;91.40;;;;;;5074070;28;20048;-70
2022/06/02 10:31:43;;;;;;;5.28;2.00;;;18.60;91.20;;;;;;5073251;28;20043;-71
2022/06/02 10:34:29;;;;;;;2.85;1.60;;;18.00;91.60;;;;;;5073901;28;20068;-71
2022/06/02 10:37:21;;;;;;;2.95;1.30;;;17.60;91.80;;;;;;5073795;28;20046;-71
2022/06/02 10:39:52;;;;;;;3.05;1.55;;;17.40;92.20;;;;;;5073435;28;20033;-71
2022/06/02 10:42:39;;;;;;;3.63;1.10;;;17.20;92.00;;;;;;5073582;28;20044;-71
2022/06/02 10:45:19;;;;;;;3.10;1.35;;;17.20;91.50;;;;;;5073717;28;20051;-71
2022/06/02 10:48:23;;;;;;;2.55;1.27;;;17.40;91.40;;;;;;5073408;28;20044;-71
2022/06/02 10:51:08;;;;;;;;;;;17.40;92.10;;;;;;5072216;28;20073;-71
2022/06/02 10:53:45;;;;;;;3.47;1.58;;;17.20;93.00;;;;;;5071131;28;19916;-70
2022/06/02 10:56:36;;;;;;;3.55;1.38;;;17.00;93.30;;;;;;5073376;28;20044;-71
2022/06/02 10:59:28;;;;;;;3.45;1.42;;;16.80;93.40;;;;;;5073411;28;20107;-71
2022/06/02 11:02:18;;;;;;;2.85;1.40;;;16.60;94.00;;;;;;5072351;28;20044;-71
2022/06/02 11:05:20;;;;;;;2.75;1.40;;;16.80;94.30;;;;;;5072914;28;20445;-71
2022/06/02 11:08:12;;;;;;;2.85;1.73;;;17.20;93.90;;;;;;5052204;28;20037;-71
2022/06/02 11:11:13;;;;;;;1.75;1.30;;;17.40;93.10;;;;;;5051492;28;20056;-71
2022/06/02 11:13:50;;;;;;;4.05;1.20;;;17.30;91.80;;;;;;5053349;28;20041;-70
2022/06/02 11:16:49;;;;;;;3.38;1.70;;;17.40;91.90;;;;;;5051819;28;20095;-70
2022/06/02 11:19:36;;;;;;;3.60;1.88;;;17.60;92.30;;;;;;5053053;28;20399;-71
2022/06/02 11:22:24;;;;;;;3.72;1.83;;;17.70;93.00;;;;;;5059366;28;20508;-71
2022/06/02 11:25:08;;;;;;;2.25;1.48;;;17.70;93.30;;;;;;5072635;28;20033;-70
2022/06/02 11:27:43;;;;;;;3.35;1.58;;;17.70;92.30;;;;;;5072559;28;20094;-70
2022/06/02 11:30:50;;;;;;;2.13;1.40;;;17.40;91.90;;;;;;5071243;28;20152;-71
2022/06/02 11:33:37;;;;;;;4.15;1.75;;;17.20;92.70;;;;;;5072676;28;20398;-70
2022/06/02 11:36:20;;;;;;;3.55;1.90;;;17.30;93.80;;;;;;5070399;28;20037;-70
2022/06/02 11:39:15;;;;;;;2.35;2.10;;;17.50;93.30;;;;;;5072746;28;20128;-70
2022/06/02 11:42:07;;;;;;;6.35;1.55;;;17.70;93.70;;;;;;5071902;28;20127;-70
2022/06/02 11:44:53;;;;;;;4.45;1.63;;;17.70;93.20;;;;;;5071313;28;20043;-70
2022/06/02 11:47:41;;;;;;;2.92;1.23;;;17.50;93.30;;;;;;5072062;28;20115;-70
2022/06/02 11:50:33;;;;;;;3.35;1.70;;;17.60;92.30;;;;;;5070949;28;20526;-70
2022/06/02 11:53:19;;;;;;;2.10;1.48;;;17.30;92.40;;;;;;5063143;28;20063;-70
2022/06/02 11:56:07;;;;;;;3.78;1.45;;;17.20;93.00;;;;;;5072367;28;20044;-70
2022/06/02 11:59:05;;;;;;;6.45;1.85;;;17.10;92.70;;;;;;5072266;28;20044;-70
2022/06/02 12:01:41;;;;;;;2.42;1.42;;;17.00;92.80;;;;;;5071866;28;20045;-70
2022/06/02 12:04:44;;;;;;;2.15;1.38;;;17.20;92.90;;;;;;5072375;28;20492;-70
2022/06/02 12:07:31;;;;;;;4.53;1.40;;;17.50;93.00;;;;;;5072348;28;20442;-70
2022/06/02 12:10:02;;;;;;;2.00;1.30;;;17.80;93.10;;;;;;5070717;28;20482;-70
2022/06/02 12:12:51;;;;;;;2.95;1.33;;;18.10;92.30;;;;;;5070777;28;20083;-70
2022/06/02 12:15:48;;;;;;;2.70;2.00;;;18.40;92.70;;;;;;5072036;28;20214;-70
2022/06/02 12:18:32;;;;;;;4.13;1.75;;;18.20;91.50;;;;;;5072201;28;20036;-70
2022/06/02 12:21:10;;;;;;;4.78;1.75;;;18.00;91.80;;;;;;5071705;28;20036;-70
2022/06/02 12:24:08;;;;;;;5.32;2.17;;;18.30;91.20;;;;;;5072056;28;20048;-70
2022/06/02 12:27:19;;;;;;;1.98;1.50;;;18.40;90.70;;;;;;5072088;28;20036;-70
2022/06/02 12:30:09;;;;;;;3.95;1.50;;;18.10;89.00;;;;;;5040805;28;20056;-70
2022/06/02 12:32:37;;;;;;;3.22;1.27;;;18.10;90.50;;;;;;5071832;28;20106;-70
2022/06/02 12:35:37;;;;;;;2.72;1.80;;;17.70;90.00;;;;;;5072025;28;20036;-70
2022/06/02 12:38:15;;;;;;;2.00;1.52;;;17.80;91.00;;;;;;5071914;28;20044;-70
2022/06/02 12:40:52;;;;;;;4.25;1.63;;;17.50;91.20;;;;;;5071239;28;20044;-70
2022/06/02 12:43:36;;;;;;;3.33;1.67;;;17.50;91.60;;;;;;5071993;28;20040;-70
2022/06/02 12:46:32;;;;;;;2.42;1.83;;;17.40;92.40;;;;;;5071775;28;20040;-70
2022/06/02 12:49:22;;;;;;;7.43;1.80;;;17.30;92.40;;;;;;5071494;28;20413;-70
2022/06/02 12:51:58;;;;;;;2.88;1.70;;;17.50;92.50;;;;;;5071379;28;20045;-70
2022/06/02 12:54:44;;;;;;;3.70;1.65;;;17.30;92.10;;;;;;5069074;28;20490;-70
2022/06/02 12:57:47;;;;;;;5.75;2.33;;;17.30;92.60;;;;;;5037369;28;20135;-70
2022/06/02 13:00:36;;;;;;;1.90;1.60;;;17.30;93.30;;;;;;5070833;28;20037;-70
2022/06/02 13:03:07;;;;;;;4.07;1.88;;;17.20;94.00;;;;;;5070597;28;20119;-70
2022/06/02 13:06:07;;;;;;;2.33;1.77;;;17.40;93.50;;;;;;5069022;28;20040;-69
2022/06/02 13:08:55;;;;;;;5.22;2.10;;;17.80;93.20;;;;;;5069128;28;20033;-69
2022/06/02 13:11:46;;;;;;;3.60;1.77;;;18.40;92.60;;;;;;5069825;28;20132;-70
2022/06/02 13:14:31;;;;;;;4.68;2.35;;;18.60;91.60;;;;;;5071154;28;20043;-70
2022/06/02 13:17:19;;;;;;;4.18;2.03;;;18.90;91.50;;;;;;5072465;28;20045;-70
2022/06/02 13:20:01;;;;;;;5.55;1.80;;;19.30;90.60;;;;;;5075077;28;20707;-70
2022/06/02 13:22:46;;;;;;;2.20;1.50;;;19.40;90.70;;;;;;5075074;28;20102;-70
2022/06/02 13:25:30;;;;;;;3.95;2.20;;;19.50;90.70;;;;;;5074251;28;20052;-70
2022/06/02 13:28:11;;;;;;;3.33;1.83;;;19.20;90.30;;;;;;5075234;28;20539;-70
2022/06/02 13:31:01;;;;;;;4.20;1.60;;;19.10;90.70;;;;;;5074603;28;20083;-71
2022/06/02 13:33:52;;;;;;;3.47;1.40;;;19.00;89.30;;;;;;5075321;28;20070;-71
2022/06/02 13:36:29;;;;;;;4.72;1.52;;;19.10;91.40;;;;;;5075168;28;20044;-70
2022/06/02 13:39:18;;;;;;;2.28;1.50;;;19.00;89.30;;;;;;5075033;28;20032;-70
2022/06/02 13:41:56;;;;;;;2.90;1.77;;;19.20;89.70;;;;;;5074491;28;20167;-70
2022/06/02 13:44:53;;;;;;;3.00;1.95;;;19.10;88.80;;;;;;5074933;28;20047;-70
2022/06/02 13:47:56;;;;;;;2.90;1.65;;;19.40;86.30;;;;;;5074801;28;20047;-70
2022/06/02 13:50:41;;;;;;;5.00;1.63;;;19.40;89.20;;;;;;5074489;28;20080;-70
2022/06/02 13:57:30;;;;;;;4.70;1.70;;;19.50;88.10;;;;;;5074548;28;20036;-71
2022/06/02 13:59:51;;;;;;;3.38;1.73;;;19.30;84.50;;;;;;5074436;28;20469;-70
2022/06/02 14:03:00;;;;;;;4.13;1.45;;;19.50;86.80;;;;;;5074592;28;20040;-70
2022/06/02 14:06:07;;;;;;;2.00;1.42;;;19.60;87.00;;;;;;5033267;28;20049;-70
2022/06/02 14:09:05;;;;;;;2.42;1.20;;;19.70;86.60;;;;;;5061647;28;20140;-71
2022/06/02 14:11:37;;;;;;;3.67;1.75;;;19.60;86.40;;;;;;5059542;28;20052;-71
2022/06/02 14:14:24;;;;;;;3.43;1.50;;;19.50;87.20;;;;;;5074410;28;20127;-72
2022/06/02 14:17:30;;;;;;;3.20;1.50;;;19.50;86.50;;;;;;5074572;28;20398;-70
2022/06/02 14:20:17;;;;;;;3.40;1.40;;;19.40;85.40;;;;;;5074039;28;20115;-71
2022/06/02 14:23:24;;;;;;;6.03;1.85;;;19.40;86.30;;;;;;5072911;28;20048;-70
2022/06/02 14:26:16;;;;;;;3.72;1.50;;;19.30;85.40;;;;;;5074250;28;20452;-70
2022/06/02 14:29:16;;;;;;;3.53;1.38;;;19.10;82.40;;;;;;5073995;28;20068;-70
2022/06/02 14:31:49;;;;;;;4.45;1.40;;;19.10;84.30;;;;;;5072008;28;20044;-71
2022/06/02 14:34:47;;;;;;;4.25;1.63;;;19.00;85.20;;;;;;5074194;28;20047;-71
2022/06/02 14:38:00;;;;;;;2.58;1.40;;;19.00;85.10;;;;;;5018281;28;20511;-72
2022/06/02 14:40:38;;;;;;;3.50;1.50;;;18.80;85.20;;;;;;5037248;28;20076;-71
2022/06/02 14:43:29;;;;;;;3.47;1.20;;;18.70;87.60;;;;;;5073837;28;20474;-73